LESOLEMH

Guest
Details From LESO - San_Sebastian
To LEMH - Menorca
Flight Number -
Tags decoded
Created
Modified
Stats Distance 348 nm / 645 km
Max Altitude 0 ft / 0 m
Waypoints 4
Social Downloads 0
Likes 0
Share VATSIM

Download

Looking for another format? Having issues loading an existing format? Contact us
Advertisement - Login to hide

Notes

Requested: LESO DONAV TIMOR LEMH

Route

LESO DONAV TIMOR LEMH

ID Type Via Altitude Latitude Longitude Leg Dist Tot Dist Heading (true) Name
O LESO APT - 0 ft / 0 m 43.35652˚ -1.79061˚ - 0 nm - San_Sebastian
DONAV FIX - 0 ft / 0 m 40.07253˚ 4.26877˚ 335 nm 335 nm 124° / 128° -
TIMOR FIX - 0 ft / 0 m 40.01125˚ 4.25179˚ 3 nm 339 nm 192° / 192° -
O LEMH APT - 0 ft / 0 m 39.86222˚ 4.21976˚ 9 nm 348 nm 189° / 189° Menorca

Altitude Profile

Advertisement - Login to hide

Weather


0- 5 10 15 20 25 30 35+ Temperature / ° C

Clouds and Precipitation
Forecast for 2017-12-16 18:00 UTC. Updated 6 minutes ago

Ground ~20,000 ft ~40,000 ft Winds

LESO

Details ICAO LESO (EAS)
Name San_Sebastian
Region Spain
Timezone Europe/Madrid (UTC+1.0)
Stats Elevation 14 ft / 4 m (AMSL)
Location 43.356520° -1.790611°
Runways 1
Magnetic Variation 0.297° W

METAR

LESO 161300Z 24007KT 210V270 9999 -RA BKN035 09/06 Q1023

Decode

TAF

TAF LESO 161100Z 1612/1712 34006KT 9999 BKN045 TX11/1614Z TN05/1706Z TEMPO 1615/1703 RA

Decode

Departure Runways

ID Width Length Bearing (true) Bearing (mag) Surface Threshold Offset Overrun Length
04 148 ft / 45 m 5,762 ft / 1,756 m 38.68° 38.98° Asphalt 0 ft / 0 m 0 ft / 0 m
22 148 ft / 45 m 5,762 ft / 1,756 m 218.69° 218.99° Asphalt 0 ft / 0 m 0 ft / 0 m

LEMH

Details ICAO LEMH (MAH)
Name Menorca
Region Spain
Timezone Europe/Madrid (UTC+1.0)
Stats Elevation 298 ft / 91 m (AMSL)
Location 39.862221° 4.219762°
Runways 2
Magnetic Variation 1.326° E

METAR

LEMH 161300Z 36017G27KT 9999 FEW035 13/02 Q1016

Decode

TAF

TAF LEMH 160800Z 1609/1709 01013KT 9999 FEW030 TX13/1612Z TN06/1706Z PROB30 TEMPO 1609/1615 SHRA FEW020TCU BKN030 TEMPO 1609/1618 01016G26KT BECMG 1701/1704 01018G28KT

Decode

Destination Runways

ID Width Length Bearing (true) Bearing (mag) Surface Threshold Offset Overrun Length
01L 148 ft / 45 m 7,723 ft / 2,354 m 8.97° 7.64° Asphalt 0 ft / 0 m 164 ft / 50 m
01R 148 ft / 45 m 6,903 ft / 2,104 m 8.97° 7.64° Asphalt 0 ft / 0 m 0 ft / 0 m
19L 148 ft / 45 m 6,903 ft / 2,104 m 188.97° 187.64° Asphalt 0 ft / 0 m 0 ft / 0 m
19R 148 ft / 45 m 7,723 ft / 2,354 m 188.97° 187.64° Asphalt 0 ft / 0 m 164 ft / 50 m

Approach Navaids

Runway Type Ident Frequency Range Bearing (true) Bearing (mag) Slope Elevation
01L Localiser IMH 110.30 MHz 18 nm / 33 km 8.97° 7.64° - 298 ft / 91 m (AMSL)
01L Glidescope IMH 110.30 MHz 10 nm / 19 km 8.97° 7.64° 3.00° 298 ft / 91 m (AMSL)
01L DME IMH 110.30 MHz 18 nm / 33 km - - - 298 ft / 91 m (AMSL)

Popular Alternatives